sensor_id;sensor_type;location;lat;lon;timestamp;pressure;altitude;pressure_sealevel;temperature;humidity
16100;BME280;8154;50.830;12.082;2023-01-25T01:49:19;101331.97;;;22.13;31.36
16100;BME280;8154;50.830;12.082;2023-01-25T01:54:24;101322.81;;;22.25;31.15
16100;BME280;8154;50.830;12.082;2023-01-25T01:57:08;101324.19;;;22.29;31.14
16100;BME280;8154;50.830;12.082;2023-01-25T01:59:45;101324.50;;;22.26;31.13
16100;BME280;8154;50.830;12.082;2023-01-25T02:02:13;101313.03;;;22.26;31.05
16100;BME280;8154;50.830;12.082;2023-01-25T02:04:41;101320.31;;;22.24;31.18
16100;BME280;8154;50.830;12.082;2023-01-25T02:07:14;101309.78;;;22.22;31.19
16100;BME280;8154;50.830;12.082;2023-01-25T02:09:42;101301.09;;;22.20;31.25
16100;BME280;8154;50.830;12.082;2023-01-25T02:12:10;101298.16;;;22.23;31.15
16100;BME280;8154;50.830;12.082;2023-01-25T02:14:44;101301.50;;;22.25;31.12
16100;BME280;8154;50.830;12.082;2023-01-25T02:17:13;101304.03;;;22.27;31.08
16100;BME280;8154;50.830;12.082;2023-01-25T02:22:50;101303.75;;;22.30;31.04
16100;BME280;8154;50.830;12.082;2023-01-25T02:25:19;101297.19;;;22.24;31.13
16100;BME280;8154;50.830;12.082;2023-01-25T02:27:50;101297.63;;;22.20;31.17
16100;BME280;8154;50.830;12.082;2023-01-25T02:30:18;101284.28;;;22.20;31.14
16100;BME280;8154;50.830;12.082;2023-01-25T02:32:44;101289.19;;;22.24;31.13
16100;BME280;8154;50.830;12.082;2023-01-25T02:35:21;101278.09;;;22.29;30.96
16100;BME280;8154;50.830;12.082;2023-01-25T02:37:49;101274.59;;;22.28;31.07
16100;BME280;8154;50.830;12.082;2023-01-25T02:40:17;101275.16;;;22.32;30.90
16100;BME280;8154;50.830;12.082;2023-01-25T02:42:45;101253.28;;;22.28;30.86
16100;BME280;8154;50.830;12.082;2023-01-25T02:45:16;101252.72;;;22.25;31.08
16100;BME280;8154;50.830;12.082;2023-01-25T02:47:44;101247.38;;;22.25;31.10
16100;BME280;8154;50.830;12.082;2023-01-25T02:50:10;101243.91;;;22.24;31.15
16100;BME280;8154;50.830;12.082;2023-01-25T02:52:36;101239.53;;;22.23;31.27
16100;BME280;8154;50.830;12.082;2023-01-25T02:55:02;101242.91;;;22.25;31.11
16100;BME280;8154;50.830;12.082;2023-01-25T02:57:28;101243.63;;;22.27;31.03
16100;BME280;8154;50.830;12.082;2023-01-25T02:59:55;101232.66;;;22.30;30.99
16100;BME280;8154;50.830;12.082;2023-01-25T03:02:21;101235.47;;;22.29;31.09
16100;BME280;8154;50.830;12.082;2023-01-25T03:04:47;101236.59;;;22.26;31.09
16100;BME280;8154;50.830;12.082;2023-01-25T03:07:16;101229.19;;;22.20;31.15
16100;BME280;8154;50.830;12.082;2023-01-25T03:09:43;101232.56;;;22.22;31.16
16100;BME280;8154;50.830;12.082;2023-01-25T03:12:09;101236.88;;;22.23;31.12
16100;BME280;8154;50.830;12.082;2023-01-25T03:14:35;101235.47;;;22.29;31.00
16100;BME280;8154;50.830;12.082;2023-01-25T03:17:01;101217.66;;;22.29;30.93
16100;BME280;8154;50.830;12.082;2023-01-25T03:19:27;101220.47;;;22.28;30.96
16100;BME280;8154;50.830;12.082;2023-01-25T03:21:53;101225.13;;;22.26;31.04
16100;BME280;8154;50.830;12.082;2023-01-25T03:24:19;101219.22;;;22.22;31.14
16100;BME280;8154;50.830;12.082;2023-01-25T03:26:45;101222.44;;;22.26;30.99
16100;BME280;8154;50.830;12.082;2023-01-25T03:29:30;101214.91;;;22.21;31.00
16100;BME280;8154;50.830;12.082;2023-01-25T03:31:58;101217.41;;;22.23;31.08
16100;BME280;8154;50.830;12.082;2023-01-25T03:34:24;101221.91;;;22.22;31.14
16100;BME280;8154;50.830;12.082;2023-01-25T03:36:50;101223.13;;;22.28;31.00
16100;BME280;8154;50.830;12.082;2023-01-25T03:39:16;101211.66;;;22.27;31.07
16100;BME280;8154;50.830;12.082;2023-01-25T03:41:42;101209.28;;;22.24;31.04
16100;BME280;8154;50.830;12.082;2023-01-25T03:44:08;101209.13;;;22.26;30.91
16100;BME280;8154;50.830;12.082;2023-01-25T03:46:37;101202.25;;;22.23;30.99
16100;BME280;8154;50.830;12.082;2023-01-25T03:49:03;101200.59;;;22.22;31.08
16100;BME280;8154;50.830;12.082;2023-01-25T06:27:37;101147.03;;;22.25;30.98
16100;BME280;8154;50.830;12.082;2023-01-25T06:30:03;101151.94;;;22.20;31.01
16100;BME280;8154;50.830;12.082;2023-01-25T06:32:31;101146.31;;;22.23;31.01
16100;BME280;8154;50.830;12.082;2023-01-25T06:34:58;101152.66;;;22.22;30.99
16100;BME280;8154;50.830;12.082;2023-01-25T06:37:24;101155.56;;;22.29;30.97
16100;BME280;8154;50.830;12.082;2023-01-25T06:39:50;101156.09;;;22.32;30.86
16100;BME280;8154;50.830;12.082;2023-01-25T06:42:16;101146.97;;;22.35;30.85
16100;BME280;8154;50.830;12.082;2023-01-25T06:44:42;101153.13;;;22.35;30.93
16100;BME280;8154;50.830;12.082;2023-01-25T06:47:08;101146.44;;;22.31;30.85
16100;BME280;8154;50.830;12.082;2023-01-25T06:49:34;101145.06;;;22.27;30.89
16100;BME280;8154;50.830;12.082;2023-01-25T06:52:00;101144.06;;;22.28;30.92
16100;BME280;8154;50.830;12.082;2023-01-25T06:54:27;101142.69;;;22.24;31.02
16100;BME280;8154;50.830;12.082;2023-01-25T06:56:53;101139.88;;;22.26;30.97
16100;BME280;8154;50.830;12.082;2023-01-25T06:59:19;101141.41;;;22.28;30.96
16100;BME280;8154;50.830;12.082;2023-01-25T07:01:45;101146.72;;;22.28;30.92
16100;BME280;8154;50.830;12.082;2023-01-25T07:04:11;101140.09;;;22.32;30.84
16100;BME280;8154;50.830;12.082;2023-01-25T07:06:38;101139.00;;;22.35;30.84
16100;BME280;8154;50.830;12.082;2023-01-25T07:09:09;101128.19;;;22.36;30.83
16100;BME280;8154;50.830;12.082;2023-01-25T07:11:36;101137.44;;;22.32;30.81
16100;BME280;8154;50.830;12.082;2023-01-25T07:14:03;101128.63;;;22.32;30.77
16100;BME280;8154;50.830;12.082;2023-01-25T07:16:29;101134.47;;;22.35;30.75
16100;BME280;8154;50.830;12.082;2023-01-25T07:19:03;101132.81;;;22.34;30.83
16100;BME280;8154;50.830;12.082;2023-01-25T07:21:29;101133.81;;;22.33;30.85
16100;BME280;8154;50.830;12.082;2023-01-25T07:23:59;101123.31;;;22.32;30.84
16100;BME280;8154;50.830;12.082;2023-01-25T07:26:27;101139.81;;;22.35;30.75
16100;BME280;8154;50.830;12.082;2023-01-25T08:27:30;101073.06;;;22.37;30.72
16100;BME280;8154;50.830;12.082;2023-01-25T08:29:56;101066.63;;;22.39;30.55
16100;BME280;8154;50.830;12.082;2023-01-25T08:32:22;101067.00;;;22.44;30.52
16100;BME280;8154;50.830;12.082;2023-01-25T08:34:48;101066.47;;;22.41;30.56
16100;BME280;8154;50.830;12.082;2023-01-25T08:37:14;101061.69;;;22.44;30.54
16100;BME280;8154;50.830;12.082;2023-01-25T08:39:42;101052.69;;;22.45;30.51
16100;BME280;8154;50.830;12.082;2023-01-25T08:42:08;101051.84;;;22.45;30.45
16100;BME280;8154;50.830;12.082;2023-01-25T08:44:34;101053.09;;;22.50;30.44
16100;BME280;8154;50.830;12.082;2023-01-25T08:47:00;101045.09;;;22.50;30.37
16100;BME280;8154;50.830;12.082;2023-01-25T08:49:26;101041.56;;;22.50;30.39
16100;BME280;8154;50.830;12.082;2023-01-25T08:51:52;101038.22;;;22.48;30.41
16100;BME280;8154;50.830;12.082;2023-01-25T08:54:18;101032.72;;;22.49;30.38
16100;BME280;8154;50.830;12.082;2023-01-25T08:56:45;101032.47;;;22.52;30.39
16100;BME280;8154;50.830;12.082;2023-01-25T08:59:11;101021.66;;;22.54;30.29
16100;BME280;8154;50.830;12.082;2023-01-25T09:01:37;101019.69;;;22.56;30.33
16100;BME280;8154;50.830;12.082;2023-01-25T09:04:04;101018.72;;;22.57;30.30
16100;BME280;8154;50.830;12.082;2023-01-25T09:06:31;101026.81;;;22.55;30.33
16100;BME280;8154;50.830;12.082;2023-01-25T09:08:58;101022.34;;;22.56;30.43
16100;BME280;8154;50.830;12.082;2023-01-25T09:11:29;101023.50;;;22.53;30.30
16100;BME280;8154;50.830;12.082;2023-01-25T09:13:55;101026.72;;;22.57;30.40
16100;BME280;8154;50.830;12.082;2023-01-25T09:16:23;101026.56;;;22.58;30.33
16100;BME280;8154;50.830;12.082;2023-01-25T09:18:57;101027.69;;;22.56;30.32
16100;BME280;8154;50.830;12.082;2023-01-25T09:21:24;101018.72;;;22.57;30.36
16100;BME280;8154;50.830;12.082;2023-01-25T09:23:51;101020.38;;;22.58;30.29
16100;BME280;8154;50.830;12.082;2023-01-25T09:26:18;101022.88;;;22.59;30.31
16100;BME280;8154;50.830;12.082;2023-01-25T09:46:57;101024.75;;;22.49;30.31
16100;BME280;8154;50.830;12.082;2023-01-25T09:52:32;101024.06;;;22.47;30.53
16100;BME280;8154;50.830;12.082;2023-01-25T09:55:12;101012.72;;;22.45;30.40
16100;BME280;8154;50.830;12.082;2023-01-25T09:57:41;101020.72;;;22.45;30.50
16100;BME280;8154;50.830;12.082;2023-01-25T10:00:17;101013.41;;;22.47;30.56
16100;BME280;8154;50.830;12.082;2023-01-25T10:05:19;100999.09;;;22.48;30.47
16100;BME280;8154;50.830;12.082;2023-01-25T10:07:53;100997.81;;;22.52;30.40
16100;BME280;8154;50.830;12.082;2023-01-25T10:10:37;100996.53;;;22.56;30.36
16100;BME280;8154;50.830;12.082;2023-01-25T10:13:10;100992.88;;;22.57;30.13
16100;BME280;8154;50.830;12.082;2023-01-25T10:15:43;100996.25;;;22.59;30.31
16100;BME280;8154;50.830;12.082;2023-01-25T10:18:36;100988.25;;;22.59;30.41
16100;BME280;8154;50.830;12.082;2023-01-25T10:21:17;100992.56;;;22.60;30.33
16100;BME280;8154;50.830;12.082;2023-01-25T10:26:36;100981.28;;;22.66;30.21
16100;BME280;8154;50.830;12.082;2023-01-25T10:29:10;100977.66;;;22.67;30.18
16100;BME280;8154;50.830;12.082;2023-01-25T10:31:45;100975.66;;;22.69;30.11
16100;BME280;8154;50.830;12.082;2023-01-25T10:34:18;100976.66;;;22.68;30.17
16100;BME280;8154;50.830;12.082;2023-01-25T10:36:51;100965.00;;;22.69;30.09
16100;BME280;8154;50.830;12.082;2023-01-25T10:39:20;100959.66;;;22.69;30.13
16100;BME280;8154;50.830;12.082;2023-01-25T10:41:53;100966.69;;;22.70;30.18
16100;BME280;8154;50.830;12.082;2023-01-25T11:46:20;100870.25;;;22.75;30.00
16100;BME280;8154;50.830;12.082;2023-01-25T11:49:10;100866.22;;;22.71;30.05
16100;BME280;8154;50.830;12.082;2023-01-25T11:51:42;100863.41;;;22.72;30.13
16100;BME280;8154;50.830;12.082;2023-01-25T12:00:03;100840.56;;;22.70;30.07
16100;BME280;8154;50.830;12.082;2023-01-25T12:03:17;100833.44;;;22.70;30.13
16100;BME280;8154;50.830;12.082;2023-01-25T12:08:59;100814.44;;;22.73;30.02
16100;BME280;8154;50.830;12.082;2023-01-25T12:11:38;100816.09;;;22.74;30.05
16100;BME280;8154;50.830;12.082;2023-01-25T12:14:09;100819.78;;;22.73;30.10
16100;BME280;8154;50.830;12.082;2023-01-25T12:16:53;100813.75;;;22.71;30.16
16100;BME280;8154;50.830;12.082;2023-01-25T12:19:38;100809.13;;;22.73;30.03
16100;BME280;8154;50.830;12.082;2023-01-25T12:25:29;100794.63;;;22.76;29.86
16100;BME280;8154;50.830;12.082;2023-01-25T12:28:19;100790.81;;;22.79;29.94
16100;BME280;8154;50.830;12.082;2023-01-25T12:30:55;100782.31;;;22.75;29.92
16100;BME280;8154;50.830;12.082;2023-01-25T12:33:26;100776.97;;;22.75;29.97
16100;BME280;8154;50.830;12.082;2023-01-25T12:36:14;100772.50;;;22.76;29.84
16100;BME280;8154;50.830;12.082;2023-01-25T12:39:07;100762.97;;;22.73;29.91
16100;BME280;8154;50.830;12.082;2023-01-25T12:41:52;100755.28;;;22.70;30.06
16100;BME280;8154;50.830;12.082;2023-01-25T12:44:32;100753.47;;;22.70;29.98
16100;BME280;8154;50.830;12.082;2023-01-25T12:47:06;100750.31;;;22.75;29.98
16100;BME280;8154;50.830;12.082;2023-01-25T12:52:36;100728.84;;;22.77;29.96
16100;BME280;8154;50.830;12.082;2023-01-25T12:55:15;100732.19;;;22.79;29.91
16100;BME280;8154;50.830;12.082;2023-01-25T13:11:33;100715.84;;;22.73;30.03
16100;BME280;8154;50.830;12.082;2023-01-25T13:16:46;100707.50;;;22.77;29.99
16100;BME280;8154;50.830;12.082;2023-01-25T13:21:56;100699.50;;;22.77;29.92
16100;BME280;8154;50.830;12.082;2023-01-25T13:34:59;100673.72;;;22.77;29.92
16100;BME280;8154;50.830;12.082;2023-01-25T13:37:30;100655.66;;;22.71;29.82
16100;BME280;8154;50.830;12.082;2023-01-25T13:39:59;100669.50;;;22.74;30.06
16100;BME280;8154;50.830;12.082;2023-01-25T13:42:30;100659.69;;;22.75;29.91
16100;BME280;8154;50.830;12.082;2023-01-25T13:45:17;100663.84;;;22.77;29.87
16100;BME280;8154;50.830;12.082;2023-01-25T14:51:33;100571.41;;;22.28;30.00
16100;BME280;8154;50.830;12.082;2023-01-25T14:54:14;100568.50;;;21.80;29.03
16100;BME280;8154;50.830;12.082;2023-01-25T14:56:48;100575.63;;;21.29;28.53
16100;BME280;8154;50.830;12.082;2023-01-25T15:01:52;100566.88;;;20.66;27.77
16100;BME280;8154;50.830;12.082;2023-01-25T15:04:21;100558.69;;;20.77;28.34
16100;BME280;8154;50.830;12.082;2023-01-25T15:06:52;100558.16;;;20.91;28.64
16100;BME280;8154;50.830;12.082;2023-01-25T15:09:31;100561.59;;;21.01;28.66
16100;BME280;8154;50.830;12.082;2023-01-25T15:12:20;100549.81;;;21.03;28.79
16100;BME280;8154;50.830;12.082;2023-01-25T15:14:50;100553.22;;;21.13;28.96
16100;BME280;8154;50.830;12.082;2023-01-25T15:17:39;100549.13;;;21.19;29.13
16100;BME280;8154;50.830;12.082;2023-01-25T15:20:20;100537.50;;;21.20;29.22
16100;BME280;8154;50.830;12.082;2023-01-25T15:22:50;100537.50;;;21.20;29.36
16100;BME280;8154;50.830;12.082;2023-01-25T15:25:17;100531.19;;;21.21;29.44
16100;BME280;8154;50.830;12.082;2023-01-25T15:27:42;100532.03;;;21.22;29.59
16100;BME280;8154;50.830;12.082;2023-01-25T15:30:16;100518.56;;;21.23;29.72
16100;BME280;8154;50.830;12.082;2023-01-25T15:32:44;100516.06;;;21.22;29.71
16100;BME280;8154;50.830;12.082;2023-01-25T16:36:27;100482.84;;;21.00;31.98
16100;BME280;8154;50.830;12.082;2023-01-25T16:38:54;100481.03;;;21.00;32.04
16100;BME280;8154;50.830;12.082;2023-01-25T16:41:20;100474.19;;;20.98;32.14
16100;BME280;8154;50.830;12.082;2023-01-25T16:43:47;100475.41;;;21.03;32.12
16100;BME280;8154;50.830;12.082;2023-01-25T16:46:20;100475.91;;;21.07;32.24
16100;BME280;8154;50.830;12.082;2023-01-25T16:48:48;100466.50;;;21.12;32.18
16100;BME280;8154;50.830;12.082;2023-01-25T16:51:18;100463.84;;;21.12;32.38
16100;BME280;8154;50.830;12.082;2023-01-25T16:53:46;100462.03;;;21.13;32.42
16100;BME280;8154;50.830;12.082;2023-01-25T16:56:27;100458.69;;;21.11;32.65
16100;BME280;8154;50.830;12.082;2023-01-25T16:58:55;100458.00;;;21.09;32.57
16100;BME280;8154;50.830;12.082;2023-01-25T17:01:23;100459.00;;;21.08;32.68
16100;BME280;8154;50.830;12.082;2023-01-25T17:03:50;100446.00;;;21.05;32.83
16100;BME280;8154;50.830;12.082;2023-01-25T17:06:19;100454.00;;;21.05;33.13
16100;BME280;8154;50.830;12.082;2023-01-25T17:09:06;100452.13;;;21.05;33.33
16100;BME280;8154;50.830;12.082;2023-01-25T17:11:37;100449.31;;;21.07;33.35
16100;BME280;8154;50.830;12.082;2023-01-25T17:14:03;100445.38;;;21.11;33.09
16100;BME280;8154;50.830;12.082;2023-01-25T17:16:30;100452.88;;;21.15;33.46
16100;BME280;8154;50.830;12.082;2023-01-25T17:19:01;100445.06;;;21.14;33.35
16100;BME280;8154;50.830;12.082;2023-01-25T17:21:28;100447.03;;;21.12;33.63
16100;BME280;8154;50.830;12.082;2023-01-25T17:23:55;100441.88;;;21.10;33.68
16100;BME280;8154;50.830;12.082;2023-01-25T17:26:22;100443.84;;;21.08;33.63
16100;BME280;8154;50.830;12.082;2023-01-25T17:28:48;100445.84;;;21.06;33.84
16100;BME280;8154;50.830;12.082;2023-01-25T17:31:20;100441.94;;;21.18;33.67
16100;BME280;8154;50.830;12.082;2023-01-25T17:33:47;100433.69;;;21.30;33.59
16100;BME280;8154;50.830;12.082;2023-01-25T17:36:14;100428.06;;;21.33;33.54
16100;BME280;8154;50.830;12.082;2023-01-25T17:38:41;100427.44;;;21.39;33.77
16100;BME280;8154;50.830;12.082;2023-01-25T17:41:10;100431.59;;;21.41;33.84
16100;BME280;8154;50.830;12.082;2023-01-25T17:43:36;100419.97;;;21.42;34.01
16100;BME280;8154;50.830;12.082;2023-01-25T17:46:19;100419.44;;;21.39;34.30
16100;BME280;8154;50.830;12.082;2023-01-25T17:48:45;100417.16;;;21.44;34.31
16100;BME280;8154;50.830;12.082;2023-01-25T17:51:13;100416.16;;;21.45;34.28
16100;BME280;8154;50.830;12.082;2023-01-25T17:53:40;100410.00;;;21.44;34.45
16100;BME280;8154;50.830;12.082;2023-01-25T17:56:07;100411.16;;;21.42;34.55
16100;BME280;8154;50.830;12.082;2023-01-25T17:58:36;100402.16;;;21.43;34.56
16100;BME280;8154;50.830;12.082;2023-01-25T18:03:36;100403.00;;;21.43;34.79
16100;BME280;8154;50.830;12.082;2023-01-25T18:06:02;100414.00;;;21.14;35.21
16100;BME280;8154;50.830;12.082;2023-01-25T18:08:42;100415.84;;;19.46;38.96
16100;BME280;8154;50.830;12.082;2023-01-25T18:11:12;100415.41;;;18.95;40.13
16100;BME280;8154;50.830;12.082;2023-01-25T18:13:42;100410.19;;;18.76;40.79
16100;BME280;8154;50.830;12.082;2023-01-25T18:16:09;100407.69;;;18.65;41.03
16100;BME280;8154;50.830;12.082;2023-01-25T18:18:57;100403.53;;;18.53;41.29
16100;BME280;8154;50.830;12.082;2023-01-25T18:21:26;100405.75;;;18.48;41.90
16100;BME280;8154;50.830;12.082;2023-01-25T18:26:38;100388.47;;;18.35;42.11
16100;BME280;8154;50.830;12.082;2023-01-25T18:31:34;100385.91;;;18.33;42.37
16100;BME280;8154;50.830;12.082;2023-01-25T18:34:01;100387.88;;;18.31;42.51
16100;BME280;8154;50.830;12.082;2023-01-25T20:39:25;100263.41;;;17.94;45.29
16100;BME280;8154;50.830;12.082;2023-01-25T20:41:51;100258.97;;;17.95;45.29
16100;BME280;8154;50.830;12.082;2023-01-25T20:44:18;100262.59;;;17.94;45.31
16100;BME280;8154;50.830;12.082;2023-01-25T20:46:44;100261.59;;;17.95;45.29
16100;BME280;8154;50.830;12.082;2023-01-25T20:49:16;100251.31;;;17.92;45.36
16100;BME280;8154;50.830;12.082;2023-01-25T20:51:43;100239.34;;;17.97;45.22
16100;BME280;8154;50.830;12.082;2023-01-25T20:54:10;100238.94;;;18.02;45.21
16100;BME280;8154;50.830;12.082;2023-01-25T20:56:36;100231.53;;;17.96;45.08
16100;BME280;8154;50.830;12.082;2023-01-25T20:59:02;100231.13;;;17.91;45.35
16100;BME280;8154;50.830;12.082;2023-01-25T21:01:30;100221.53;;;17.90;45.21
16100;BME280;8154;50.830;12.082;2023-01-25T21:04:02;100217.22;;;17.89;45.34
16100;BME280;8154;50.830;12.082;2023-01-25T21:06:29;100210.28;;;17.88;45.31
16100;BME280;8154;50.830;12.082;2023-01-25T21:08:55;100211.22;;;17.87;45.33
16100;BME280;8154;50.830;12.082;2023-01-25T21:11:23;100210.41;;;17.86;45.26
16100;BME280;8154;50.830;12.082;2023-01-25T21:13:51;100212.34;;;17.84;45.17
16100;BME280;8154;50.830;12.082;2023-01-25T21:16:20;100209.84;;;17.83;45.25
16100;BME280;8154;50.830;12.082;2023-01-25T21:18:48;100212.22;;;17.86;45.13
16100;BME280;8154;50.830;12.082;2023-01-25T21:21:20;100200.78;;;17.85;45.22
16100;BME280;8154;50.830;12.082;2023-01-25T21:23:49;100205.13;;;17.86;45.12
16100;BME280;8154;50.830;12.082;2023-01-25T21:26:23;100203.72;;;17.92;45.08
16100;BME280;8154;50.830;12.082;2023-01-25T21:28:51;100198.56;;;18.00;44.82
16100;BME280;8154;50.830;12.082;2023-01-25T21:31:24;100194.91;;;18.01;44.76
16100;BME280;8154;50.830;12.082;2023-01-25T21:33:51;100191.03;;;17.95;44.80
16100;BME280;8154;50.830;12.082;2023-01-25T21:36:18;100193.53;;;17.97;44.69
16100;BME280;8154;50.830;12.082;2023-01-25T22:40:31;100180.78;;;19.37;40.78
16100;BME280;8154;50.830;12.082;2023-01-25T22:42:57;100180.50;;;19.40;40.32
16100;BME280;8154;50.830;12.082;2023-01-25T22:45:23;100176.84;;;19.41;40.38
16100;BME280;8154;50.830;12.082;2023-01-25T22:47:48;100175.03;;;19.42;40.25
16100;BME280;8154;50.830;12.082;2023-01-25T22:50:15;100167.63;;;19.45;40.32
16100;BME280;8154;50.830;12.082;2023-01-25T22:52:41;100168.31;;;19.47;40.23
16100;BME280;8154;50.830;12.082;2023-01-25T22:55:07;100167.31;;;19.48;40.08
16100;BME280;8154;50.830;12.082;2023-01-25T22:57:33;100149.59;;;19.49;40.06
16100;BME280;8154;50.830;12.082;2023-01-25T22:59:59;100147.47;;;19.52;39.93
16100;BME280;8154;50.830;12.082;2023-01-25T23:02:25;100141.19;;;19.53;39.89
16100;BME280;8154;50.830;12.082;2023-01-25T23:04:51;100138.38;;;19.55;39.73
16100;BME280;8154;50.830;12.082;2023-01-25T23:07:17;100145.34;;;19.56;39.60
16100;BME280;8154;50.830;12.082;2023-01-25T23:09:44;100131.25;;;19.55;39.68
16100;BME280;8154;50.830;12.082;2023-01-25T23:12:13;100125.78;;;19.57;39.53
16100;BME280;8154;50.830;12.082;2023-01-25T23:14:40;100126.63;;;19.57;39.75
16100;BME280;8154;50.830;12.082;2023-01-25T23:17:12;100122.81;;;19.60;39.77
16100;BME280;8154;50.830;12.082;2023-01-25T23:19:56;100112.06;;;19.61;39.44
16100;BME280;8154;50.830;12.082;2023-01-25T23:22:22;100130.50;;;19.63;39.57
16100;BME280;8154;50.830;12.082;2023-01-25T23:24:48;100123.19;;;19.65;39.25
16100;BME280;8154;50.830;12.082;2023-01-25T23:27:14;100117.91;;;19.65;39.26
16100;BME280;8154;50.830;12.082;2023-01-25T23:29:40;100117.72;;;19.67;39.35
16100;BME280;8154;50.830;12.082;2023-01-25T23:32:06;100114.13;;;19.68;39.36
16100;BME280;8154;50.830;12.082;2023-01-25T23:34:32;100113.13;;;19.69;39.17
16100;BME280;8154;50.830;12.082;2023-01-25T23:37:02;100097.38;;;19.67;39.11
16100;BME280;8154;50.830;12.082;2023-01-25T23:39:28;100105.00;;;19.70;39.24
16100;BME280;8154;50.830;12.082;2023-01-25T23:41:54;100096.06;;;19.71;39.15
16100;BME280;8154;50.830;12.082;2023-01-25T23:44:20;100091.59;;;19.72;39.04
16100;BME280;8154;50.830;12.082;2023-01-25T23:46:46;100095.09;;;19.72;39.02
16100;BME280;8154;50.830;12.082;2023-01-25T23:49:13;100091.44;;;19.73;38.95
16100;BME280;8154;50.830;12.082;2023-01-25T23:51:39;100092.28;;;19.74;38.84
16100;BME280;8154;50.830;12.082;2023-01-25T23:54:04;100087.63;;;19.76;38.84
16100;BME280;8154;50.830;12.082;2023-01-25T23:56:31;100082.31;;;19.76;38.80
16100;BME280;8154;50.830;12.082;2023-01-25T23:58:57;100081.19;;;19.78;38.81
